<?xml version="1.0" encoding="UTF-8" standalone="no" ?>
<gpx xmlns="http://www.topografix.com/GPX/1/1" xmlns:xsi="http://www.w3.org/2001/XMLSchema-instance" xsi:schemaLocation="http://www.topografix.com/GPX/1/1 http://www.topografix.com/GPX/1/1/gpx.xsd" version="1.1" creator="VisuGPX - https://www.visugpx.com">
  <metadata>
    <name>2ème étape du TMB</name>
    <desc><![CDATA[Deuxième parcours]]></desc>
  </metadata>
  <wpt lat="45.80279" lon="6.72119">
    <ele>1186</ele>
    <name><![CDATA[En sortant du camping, prendre à gauche]]></name>
  </wpt>
  <wpt lat="45.75032" lon="6.71076">
    <ele>1935</ele>
    <name><![CDATA[Passerelle Plan Jovet]]></name>
  </wpt>
  <wpt lat="45.72446" lon="6.71685">
    <ele>2480</ele>
    <name><![CDATA[Petit ressaut avant le refuge]]></name>
  </wpt>
  <trk>
    <name><![CDATA[2ème étape du TMB]]></name>
    <trkseg>
      <trkpt lat="45.80279" lon="6.72119">
        <ele>1186</ele>
        <time>2021-05-11T11:06:57+02:00</time>
      </trkpt>
      <trkpt lat="45.80169" lon="6.72065">
        <ele>1181</ele>
        <time>2021-05-11T11:07:02+02:00</time>
      </trkpt>
      <trkpt lat="45.80086" lon="6.7202">
        <ele>1182</ele>
        <time>2021-05-11T11:07:07+02:00</time>
      </trkpt>
      <trkpt lat="45.80002" lon="6.7198">
        <ele>1183</ele>
        <time>2021-05-11T11:07:12+02:00</time>
      </trkpt>
      <trkpt lat="45.7992" lon="6.71945">
        <ele>1183</ele>
        <time>2021-05-11T11:07:17+02:00</time>
      </trkpt>
      <trkpt lat="45.79839" lon="6.71914">
        <ele>1186</ele>
        <time>2021-05-11T11:07:22+02:00</time>
      </trkpt>
      <trkpt lat="45.79744" lon="6.71831">
        <ele>1189</ele>
        <time>2021-05-11T11:07:27+02:00</time>
      </trkpt>
      <trkpt lat="45.79644" lon="6.71756">
        <ele>1192</ele>
        <time>2021-05-11T11:07:32+02:00</time>
      </trkpt>
      <trkpt lat="45.79547" lon="6.71714">
        <ele>1196</ele>
        <time>2021-05-11T11:07:37+02:00</time>
      </trkpt>
      <trkpt lat="45.79473" lon="6.71673">
        <ele>1199</ele>
        <time>2021-05-11T11:07:42+02:00</time>
      </trkpt>
      <trkpt lat="45.7937" lon="6.71624">
        <ele>1202</ele>
        <time>2021-05-11T11:07:47+02:00</time>
      </trkpt>
      <trkpt lat="45.79299" lon="6.71592">
        <ele>1206</ele>
        <time>2021-05-11T11:07:52+02:00</time>
      </trkpt>
      <trkpt lat="45.7925" lon="6.71581">
        <ele>1208</ele>
        <time>2021-05-11T11:07:57+02:00</time>
      </trkpt>
      <trkpt lat="45.79209" lon="6.71585">
        <ele>1215</ele>
        <time>2021-05-11T11:08:02+02:00</time>
      </trkpt>
      <trkpt lat="45.79165" lon="6.71609">
        <ele>1233</ele>
        <time>2021-05-11T11:08:07+02:00</time>
      </trkpt>
      <trkpt lat="45.79138" lon="6.7157">
        <ele>1235</ele>
        <time>2021-05-11T11:08:12+02:00</time>
      </trkpt>
      <trkpt lat="45.78997" lon="6.71473">
        <ele>1271</ele>
        <time>2021-05-11T11:08:17+02:00</time>
      </trkpt>
      <trkpt lat="45.78848" lon="6.71392">
        <ele>1300</ele>
        <time>2021-05-11T11:08:22+02:00</time>
      </trkpt>
      <trkpt lat="45.78671" lon="6.71272">
        <ele>1316</ele>
        <time>2021-05-11T11:08:27+02:00</time>
      </trkpt>
      <trkpt lat="45.78595" lon="6.71278">
        <ele>1338</ele>
        <time>2021-05-11T11:08:32+02:00</time>
      </trkpt>
      <trkpt lat="45.78517" lon="6.71247">
        <ele>1340</ele>
        <time>2021-05-11T11:08:37+02:00</time>
      </trkpt>
      <trkpt lat="45.78464" lon="6.7125">
        <ele>1349</ele>
        <time>2021-05-11T11:08:42+02:00</time>
      </trkpt>
      <trkpt lat="45.78436" lon="6.71284">
        <ele>1358</ele>
        <time>2021-05-11T11:08:47+02:00</time>
      </trkpt>
      <trkpt lat="45.78391" lon="6.71296">
        <ele>1366</ele>
        <time>2021-05-11T11:08:52+02:00</time>
      </trkpt>
      <trkpt lat="45.78288" lon="6.71462">
        <ele>1380</ele>
        <time>2021-05-11T11:08:57+02:00</time>
      </trkpt>
      <trkpt lat="45.78245" lon="6.71496">
        <ele>1382</ele>
        <time>2021-05-11T11:09:02+02:00</time>
      </trkpt>
      <trkpt lat="45.78198" lon="6.71518">
        <ele>1391</ele>
        <time>2021-05-11T11:09:07+02:00</time>
      </trkpt>
      <trkpt lat="45.78164" lon="6.71547">
        <ele>1396</ele>
        <time>2021-05-11T11:09:12+02:00</time>
      </trkpt>
      <trkpt lat="45.78093" lon="6.71502">
        <ele>1412</ele>
        <time>2021-05-11T11:09:17+02:00</time>
      </trkpt>
      <trkpt lat="45.78039" lon="6.71485">
        <ele>1424</ele>
        <time>2021-05-11T11:09:22+02:00</time>
      </trkpt>
      <trkpt lat="45.77985" lon="6.71459">
        <ele>1437</ele>
        <time>2021-05-11T11:09:27+02:00</time>
      </trkpt>
      <trkpt lat="45.77933" lon="6.71476">
        <ele>1445</ele>
        <time>2021-05-11T11:09:32+02:00</time>
      </trkpt>
      <trkpt lat="45.77873" lon="6.71473">
        <ele>1452</ele>
        <time>2021-05-11T11:09:37+02:00</time>
      </trkpt>
      <trkpt lat="45.77837" lon="6.7146">
        <ele>1458</ele>
        <time>2021-05-11T11:09:42+02:00</time>
      </trkpt>
      <trkpt lat="45.77817" lon="6.71414">
        <ele>1472</ele>
        <time>2021-05-11T11:09:47+02:00</time>
      </trkpt>
      <trkpt lat="45.778" lon="6.71414">
        <ele>1477</ele>
        <time>2021-05-11T11:09:52+02:00</time>
      </trkpt>
      <trkpt lat="45.77741" lon="6.71459">
        <ele>1483</ele>
        <time>2021-05-11T11:09:57+02:00</time>
      </trkpt>
      <trkpt lat="45.77675" lon="6.71482">
        <ele>1498</ele>
        <time>2021-05-11T11:10:02+02:00</time>
      </trkpt>
      <trkpt lat="45.77599" lon="6.71508">
        <ele>1523</ele>
        <time>2021-05-11T11:10:07+02:00</time>
      </trkpt>
      <trkpt lat="45.77524" lon="6.7158">
        <ele>1518</ele>
        <time>2021-05-11T11:10:12+02:00</time>
      </trkpt>
      <trkpt lat="45.77446" lon="6.71579">
        <ele>1531</ele>
        <time>2021-05-11T11:10:17+02:00</time>
      </trkpt>
      <trkpt lat="45.77414" lon="6.71596">
        <ele>1532</ele>
        <time>2021-05-11T11:10:22+02:00</time>
      </trkpt>
      <trkpt lat="45.77363" lon="6.71594">
        <ele>1536</ele>
        <time>2021-05-11T11:10:27+02:00</time>
      </trkpt>
      <trkpt lat="45.7728" lon="6.71569">
        <ele>1546</ele>
        <time>2021-05-11T11:10:32+02:00</time>
      </trkpt>
      <trkpt lat="45.77235" lon="6.71571">
        <ele>1546</ele>
        <time>2021-05-11T11:10:37+02:00</time>
      </trkpt>
      <trkpt lat="45.77202" lon="6.71578">
        <ele>1545</ele>
        <time>2021-05-11T11:10:42+02:00</time>
      </trkpt>
      <trkpt lat="45.77168" lon="6.71571">
        <ele>1546</ele>
        <time>2021-05-11T11:10:47+02:00</time>
      </trkpt>
      <trkpt lat="45.77151" lon="6.71562">
        <ele>1547</ele>
        <time>2021-05-11T11:10:52+02:00</time>
      </trkpt>
      <trkpt lat="45.77138" lon="6.71544">
        <ele>1550</ele>
        <time>2021-05-11T11:10:57+02:00</time>
      </trkpt>
      <trkpt lat="45.77085" lon="6.71536">
        <ele>1548</ele>
        <time>2021-05-11T11:11:02+02:00</time>
      </trkpt>
      <trkpt lat="45.7704" lon="6.7151">
        <ele>1548</ele>
        <time>2021-05-11T11:11:07+02:00</time>
      </trkpt>
      <trkpt lat="45.77005" lon="6.71483">
        <ele>1549</ele>
        <time>2021-05-11T11:11:12+02:00</time>
      </trkpt>
      <trkpt lat="45.7693" lon="6.71469">
        <ele>1553</ele>
        <time>2021-05-11T11:11:17+02:00</time>
      </trkpt>
      <trkpt lat="45.76873" lon="6.71448">
        <ele>1557</ele>
        <time>2021-05-11T11:11:22+02:00</time>
      </trkpt>
      <trkpt lat="45.76775" lon="6.71398">
        <ele>1561</ele>
        <time>2021-05-11T11:11:27+02:00</time>
      </trkpt>
      <trkpt lat="45.76717" lon="6.71348">
        <ele>1562</ele>
        <time>2021-05-11T11:11:32+02:00</time>
      </trkpt>
      <trkpt lat="45.76674" lon="6.71311">
        <ele>1563</ele>
        <time>2021-05-11T11:11:37+02:00</time>
      </trkpt>
      <trkpt lat="45.7651" lon="6.71259">
        <ele>1575</ele>
        <time>2021-05-11T11:11:42+02:00</time>
      </trkpt>
      <trkpt lat="45.76484" lon="6.71253">
        <ele>1577</ele>
        <time>2021-05-11T11:11:47+02:00</time>
      </trkpt>
      <trkpt lat="45.76457" lon="6.71236">
        <ele>1580</ele>
        <time>2021-05-11T11:11:52+02:00</time>
      </trkpt>
      <trkpt lat="45.76436" lon="6.71239">
        <ele>1581</ele>
        <time>2021-05-11T11:11:57+02:00</time>
      </trkpt>
      <trkpt lat="45.76361" lon="6.71198">
        <ele>1590</ele>
        <time>2021-05-11T11:12:02+02:00</time>
      </trkpt>
      <trkpt lat="45.76304" lon="6.71181">
        <ele>1598</ele>
        <time>2021-05-11T11:12:07+02:00</time>
      </trkpt>
      <trkpt lat="45.76262" lon="6.71156">
        <ele>1605</ele>
        <time>2021-05-11T11:12:12+02:00</time>
      </trkpt>
      <trkpt lat="45.76201" lon="6.71132">
        <ele>1615</ele>
        <time>2021-05-11T11:12:17+02:00</time>
      </trkpt>
      <trkpt lat="45.76164" lon="6.71131">
        <ele>1622</ele>
        <time>2021-05-11T11:12:22+02:00</time>
      </trkpt>
      <trkpt lat="45.7614" lon="6.71123">
        <ele>1626</ele>
        <time>2021-05-11T11:12:27+02:00</time>
      </trkpt>
      <trkpt lat="45.76118" lon="6.71105">
        <ele>1630</ele>
        <time>2021-05-11T11:12:32+02:00</time>
      </trkpt>
      <trkpt lat="45.76097" lon="6.71095">
        <ele>1634</ele>
        <time>2021-05-11T11:12:37+02:00</time>
      </trkpt>
      <trkpt lat="45.76071" lon="6.71099">
        <ele>1640</ele>
        <time>2021-05-11T11:12:42+02:00</time>
      </trkpt>
      <trkpt lat="45.76016" lon="6.71124">
        <ele>1653</ele>
        <time>2021-05-11T11:12:47+02:00</time>
      </trkpt>
      <trkpt lat="45.75972" lon="6.71098">
        <ele>1666</ele>
        <time>2021-05-11T11:12:52+02:00</time>
      </trkpt>
      <trkpt lat="45.75929" lon="6.71061">
        <ele>1679</ele>
        <time>2021-05-11T11:12:57+02:00</time>
      </trkpt>
      <trkpt lat="45.75892" lon="6.71042">
        <ele>1689</ele>
        <time>2021-05-11T11:13:02+02:00</time>
      </trkpt>
      <trkpt lat="45.75877" lon="6.71066">
        <ele>1690</ele>
        <time>2021-05-11T11:13:07+02:00</time>
      </trkpt>
      <trkpt lat="45.75864" lon="6.71068">
        <ele>1692</ele>
        <time>2021-05-11T11:13:12+02:00</time>
      </trkpt>
      <trkpt lat="45.75853" lon="6.71078">
        <ele>1694</ele>
        <time>2021-05-11T11:13:17+02:00</time>
      </trkpt>
      <trkpt lat="45.75828" lon="6.71069">
        <ele>1700</ele>
        <time>2021-05-11T11:13:22+02:00</time>
      </trkpt>
      <trkpt lat="45.75805" lon="6.71075">
        <ele>1703</ele>
        <time>2021-05-11T11:13:27+02:00</time>
      </trkpt>
      <trkpt lat="45.75803" lon="6.71096">
        <ele>1702</ele>
        <time>2021-05-11T11:13:32+02:00</time>
      </trkpt>
      <trkpt lat="45.75792" lon="6.71112">
        <ele>1702</ele>
        <time>2021-05-11T11:13:37+02:00</time>
      </trkpt>
      <trkpt lat="45.75754" lon="6.71082">
        <ele>1710</ele>
        <time>2021-05-11T11:13:42+02:00</time>
      </trkpt>
      <trkpt lat="45.75707" lon="6.71039">
        <ele>1707</ele>
        <time>2021-05-11T11:13:47+02:00</time>
      </trkpt>
      <trkpt lat="45.75698" lon="6.71023">
        <ele>1708</ele>
        <time>2021-05-11T11:13:52+02:00</time>
      </trkpt>
      <trkpt lat="45.75688" lon="6.71019">
        <ele>1707</ele>
        <time>2021-05-11T11:13:57+02:00</time>
      </trkpt>
      <trkpt lat="45.75684" lon="6.71003">
        <ele>1709</ele>
        <time>2021-05-11T11:14:02+02:00</time>
      </trkpt>
      <trkpt lat="45.75673" lon="6.7099">
        <ele>1711</ele>
        <time>2021-05-11T11:14:07+02:00</time>
      </trkpt>
      <trkpt lat="45.75655" lon="6.70936">
        <ele>1731</ele>
        <time>2021-05-11T11:14:12+02:00</time>
      </trkpt>
      <trkpt lat="45.75636" lon="6.7089">
        <ele>1742</ele>
        <time>2021-05-11T11:14:17+02:00</time>
      </trkpt>
      <trkpt lat="45.75591" lon="6.70831">
        <ele>1760</ele>
        <time>2021-05-11T11:14:22+02:00</time>
      </trkpt>
      <trkpt lat="45.75561" lon="6.70806">
        <ele>1771</ele>
        <time>2021-05-11T11:14:27+02:00</time>
      </trkpt>
      <trkpt lat="45.7554" lon="6.70818">
        <ele>1774</ele>
        <time>2021-05-11T11:14:32+02:00</time>
      </trkpt>
      <trkpt lat="45.75528" lon="6.70813">
        <ele>1778</ele>
        <time>2021-05-11T11:14:37+02:00</time>
      </trkpt>
      <trkpt lat="45.75517" lon="6.70812">
        <ele>1780</ele>
        <time>2021-05-11T11:14:42+02:00</time>
      </trkpt>
      <trkpt lat="45.75508" lon="6.70801">
        <ele>1785</ele>
        <time>2021-05-11T11:14:47+02:00</time>
      </trkpt>
      <trkpt lat="45.75477" lon="6.70787">
        <ele>1797</ele>
        <time>2021-05-11T11:14:52+02:00</time>
      </trkpt>
      <trkpt lat="45.75453" lon="6.70784">
        <ele>1806</ele>
        <time>2021-05-11T11:14:57+02:00</time>
      </trkpt>
      <trkpt lat="45.75435" lon="6.70802">
        <ele>1809</ele>
        <time>2021-05-11T11:15:02+02:00</time>
      </trkpt>
      <trkpt lat="45.75413" lon="6.70816">
        <ele>1815</ele>
        <time>2021-05-11T11:15:07+02:00</time>
      </trkpt>
      <trkpt lat="45.75379" lon="6.70868">
        <ele>1826</ele>
        <time>2021-05-11T11:15:12+02:00</time>
      </trkpt>
      <trkpt lat="45.75363" lon="6.70871">
        <ele>1834</ele>
        <time>2021-05-11T11:15:17+02:00</time>
      </trkpt>
      <trkpt lat="45.75354" lon="6.70897">
        <ele>1839</ele>
        <time>2021-05-11T11:15:22+02:00</time>
      </trkpt>
      <trkpt lat="45.75291" lon="6.70945">
        <ele>1863</ele>
        <time>2021-05-11T11:15:27+02:00</time>
      </trkpt>
      <trkpt lat="45.75271" lon="6.70938">
        <ele>1873</ele>
        <time>2021-05-11T11:15:32+02:00</time>
      </trkpt>
      <trkpt lat="45.75258" lon="6.70932">
        <ele>1880</ele>
        <time>2021-05-11T11:15:37+02:00</time>
      </trkpt>
      <trkpt lat="45.75239" lon="6.7093">
        <ele>1887</ele>
        <time>2021-05-11T11:15:42+02:00</time>
      </trkpt>
      <trkpt lat="45.75213" lon="6.7095">
        <ele>1893</ele>
        <time>2021-05-11T11:15:47+02:00</time>
      </trkpt>
      <trkpt lat="45.75169" lon="6.70962">
        <ele>1906</ele>
        <time>2021-05-11T11:15:52+02:00</time>
      </trkpt>
      <trkpt lat="45.75126" lon="6.70981">
        <ele>1917</ele>
        <time>2021-05-11T11:15:57+02:00</time>
      </trkpt>
      <trkpt lat="45.75092" lon="6.71018">
        <ele>1920</ele>
        <time>2021-05-11T11:16:02+02:00</time>
      </trkpt>
      <trkpt lat="45.75058" lon="6.71033">
        <ele>1932</ele>
        <time>2021-05-11T11:16:07+02:00</time>
      </trkpt>
      <trkpt lat="45.75043" lon="6.71048">
        <ele>1936</ele>
        <time>2021-05-11T11:16:12+02:00</time>
      </trkpt>
      <trkpt lat="45.75032" lon="6.71076">
        <ele>1935</ele>
        <time>2021-05-11T11:16:17+02:00</time>
      </trkpt>
      <trkpt lat="45.75018" lon="6.71092">
        <ele>1939</ele>
        <time>2021-05-11T11:16:22+02:00</time>
      </trkpt>
      <trkpt lat="45.75013" lon="6.71139">
        <ele>1933</ele>
        <time>2021-05-11T11:16:27+02:00</time>
      </trkpt>
      <trkpt lat="45.74977" lon="6.71207">
        <ele>1932</ele>
        <time>2021-05-11T11:16:32+02:00</time>
      </trkpt>
      <trkpt lat="45.74954" lon="6.71225">
        <ele>1935</ele>
        <time>2021-05-11T11:16:37+02:00</time>
      </trkpt>
      <trkpt lat="45.74938" lon="6.71284">
        <ele>1931</ele>
        <time>2021-05-11T11:16:42+02:00</time>
      </trkpt>
      <trkpt lat="45.74902" lon="6.71356">
        <ele>1931</ele>
        <time>2021-05-11T11:16:47+02:00</time>
      </trkpt>
      <trkpt lat="45.7486" lon="6.71417">
        <ele>1929</ele>
        <time>2021-05-11T11:16:52+02:00</time>
      </trkpt>
      <trkpt lat="45.74794" lon="6.71447">
        <ele>1936</ele>
        <time>2021-05-11T11:16:57+02:00</time>
      </trkpt>
      <trkpt lat="45.7477" lon="6.71459">
        <ele>1939</ele>
        <time>2021-05-11T11:17:02+02:00</time>
      </trkpt>
      <trkpt lat="45.74765" lon="6.71476">
        <ele>1939</ele>
        <time>2021-05-11T11:17:07+02:00</time>
      </trkpt>
      <trkpt lat="45.74767" lon="6.71485">
        <ele>1938</ele>
        <time>2021-05-11T11:17:12+02:00</time>
      </trkpt>
      <trkpt lat="45.74772" lon="6.71491">
        <ele>1937</ele>
        <time>2021-05-11T11:17:17+02:00</time>
      </trkpt>
      <trkpt lat="45.74753" lon="6.71511">
        <ele>1940</ele>
        <time>2021-05-11T11:17:22+02:00</time>
      </trkpt>
      <trkpt lat="45.74731" lon="6.7152">
        <ele>1947</ele>
        <time>2021-05-11T11:17:27+02:00</time>
      </trkpt>
      <trkpt lat="45.74716" lon="6.71547">
        <ele>1952</ele>
        <time>2021-05-11T11:17:32+02:00</time>
      </trkpt>
      <trkpt lat="45.7471" lon="6.71584">
        <ele>1954</ele>
        <time>2021-05-11T11:17:37+02:00</time>
      </trkpt>
      <trkpt lat="45.74692" lon="6.71629">
        <ele>1963</ele>
        <time>2021-05-11T11:17:42+02:00</time>
      </trkpt>
      <trkpt lat="45.74674" lon="6.71683">
        <ele>1974</ele>
        <time>2021-05-11T11:17:47+02:00</time>
      </trkpt>
      <trkpt lat="45.74656" lon="6.71731">
        <ele>1985</ele>
        <time>2021-05-11T11:17:52+02:00</time>
      </trkpt>
      <trkpt lat="45.7466" lon="6.71754">
        <ele>1985</ele>
        <time>2021-05-11T11:17:57+02:00</time>
      </trkpt>
      <trkpt lat="45.74666" lon="6.71813">
        <ele>1988</ele>
        <time>2021-05-11T11:18:02+02:00</time>
      </trkpt>
      <trkpt lat="45.74595" lon="6.7173">
        <ele>2018</ele>
        <time>2021-05-11T11:18:07+02:00</time>
      </trkpt>
      <trkpt lat="45.74553" lon="6.71704">
        <ele>2032</ele>
        <time>2021-05-11T11:18:12+02:00</time>
      </trkpt>
      <trkpt lat="45.74529" lon="6.71699">
        <ele>2040</ele>
        <time>2021-05-11T11:18:17+02:00</time>
      </trkpt>
      <trkpt lat="45.74508" lon="6.71661">
        <ele>2043</ele>
        <time>2021-05-11T11:18:22+02:00</time>
      </trkpt>
      <trkpt lat="45.74489" lon="6.71646">
        <ele>2048</ele>
        <time>2021-05-11T11:18:27+02:00</time>
      </trkpt>
      <trkpt lat="45.74476" lon="6.7161">
        <ele>2050</ele>
        <time>2021-05-11T11:18:32+02:00</time>
      </trkpt>
      <trkpt lat="45.74424" lon="6.71596">
        <ele>2062</ele>
        <time>2021-05-11T11:18:37+02:00</time>
      </trkpt>
      <trkpt lat="45.74351" lon="6.71558">
        <ele>2069</ele>
        <time>2021-05-11T11:18:42+02:00</time>
      </trkpt>
      <trkpt lat="45.74298" lon="6.71548">
        <ele>2079</ele>
        <time>2021-05-11T11:18:47+02:00</time>
      </trkpt>
      <trkpt lat="45.74276" lon="6.7153">
        <ele>2083</ele>
        <time>2021-05-11T11:18:52+02:00</time>
      </trkpt>
      <trkpt lat="45.74242" lon="6.71483">
        <ele>2087</ele>
        <time>2021-05-11T11:18:57+02:00</time>
      </trkpt>
      <trkpt lat="45.74222" lon="6.71464">
        <ele>2088</ele>
        <time>2021-05-11T11:19:02+02:00</time>
      </trkpt>
      <trkpt lat="45.74199" lon="6.71452">
        <ele>2092</ele>
        <time>2021-05-11T11:19:07+02:00</time>
      </trkpt>
      <trkpt lat="45.74148" lon="6.71404">
        <ele>2098</ele>
        <time>2021-05-11T11:19:12+02:00</time>
      </trkpt>
      <trkpt lat="45.74078" lon="6.7136">
        <ele>2109</ele>
        <time>2021-05-11T11:19:17+02:00</time>
      </trkpt>
      <trkpt lat="45.74061" lon="6.71353">
        <ele>2113</ele>
        <time>2021-05-11T11:19:22+02:00</time>
      </trkpt>
      <trkpt lat="45.74048" lon="6.71317">
        <ele>2114</ele>
        <time>2021-05-11T11:19:27+02:00</time>
      </trkpt>
      <trkpt lat="45.74027" lon="6.71304">
        <ele>2118</ele>
        <time>2021-05-11T11:19:32+02:00</time>
      </trkpt>
      <trkpt lat="45.73927" lon="6.71218">
        <ele>2139</ele>
        <time>2021-05-11T11:19:37+02:00</time>
      </trkpt>
      <trkpt lat="45.73928" lon="6.71189">
        <ele>2141</ele>
        <time>2021-05-11T11:19:42+02:00</time>
      </trkpt>
      <trkpt lat="45.73888" lon="6.7111">
        <ele>2161</ele>
        <time>2021-05-11T11:19:47+02:00</time>
      </trkpt>
      <trkpt lat="45.73843" lon="6.71018">
        <ele>2187</ele>
        <time>2021-05-11T11:19:52+02:00</time>
      </trkpt>
      <trkpt lat="45.73829" lon="6.70988">
        <ele>2196</ele>
        <time>2021-05-11T11:19:57+02:00</time>
      </trkpt>
      <trkpt lat="45.73824" lon="6.70996">
        <ele>2196</ele>
        <time>2021-05-11T11:20:02+02:00</time>
      </trkpt>
      <trkpt lat="45.7381" lon="6.70973">
        <ele>2210</ele>
        <time>2021-05-11T11:20:07+02:00</time>
      </trkpt>
      <trkpt lat="45.73801" lon="6.70951">
        <ele>2218</ele>
        <time>2021-05-11T11:20:12+02:00</time>
      </trkpt>
      <trkpt lat="45.73786" lon="6.70943">
        <ele>2224</ele>
        <time>2021-05-11T11:20:17+02:00</time>
      </trkpt>
      <trkpt lat="45.7378" lon="6.7092">
        <ele>2229</ele>
        <time>2021-05-11T11:20:22+02:00</time>
      </trkpt>
      <trkpt lat="45.73756" lon="6.70914">
        <ele>2234</ele>
        <time>2021-05-11T11:20:27+02:00</time>
      </trkpt>
      <trkpt lat="45.73743" lon="6.70885">
        <ele>2241</ele>
        <time>2021-05-11T11:20:32+02:00</time>
      </trkpt>
      <trkpt lat="45.73734" lon="6.70865">
        <ele>2247</ele>
        <time>2021-05-11T11:20:37+02:00</time>
      </trkpt>
      <trkpt lat="45.73735" lon="6.7084">
        <ele>2249</ele>
        <time>2021-05-11T11:20:42+02:00</time>
      </trkpt>
      <trkpt lat="45.7368" lon="6.70777">
        <ele>2276</ele>
        <time>2021-05-11T11:20:47+02:00</time>
      </trkpt>
      <trkpt lat="45.73631" lon="6.70763">
        <ele>2294</ele>
        <time>2021-05-11T11:20:52+02:00</time>
      </trkpt>
      <trkpt lat="45.73537" lon="6.70673">
        <ele>2323</ele>
        <time>2021-05-11T11:20:57+02:00</time>
      </trkpt>
      <trkpt lat="45.73504" lon="6.70657">
        <ele>2324</ele>
        <time>2021-05-11T11:21:02+02:00</time>
      </trkpt>
      <trkpt lat="45.7348" lon="6.70693">
        <ele>2323</ele>
        <time>2021-05-11T11:21:07+02:00</time>
      </trkpt>
      <trkpt lat="45.73445" lon="6.70721">
        <ele>2320</ele>
        <time>2021-05-11T11:21:12+02:00</time>
      </trkpt>
      <trkpt lat="45.73429" lon="6.70782">
        <ele>2336</ele>
        <time>2021-05-11T11:21:17+02:00</time>
      </trkpt>
      <trkpt lat="45.73395" lon="6.70839">
        <ele>2360</ele>
        <time>2021-05-11T11:21:22+02:00</time>
      </trkpt>
      <trkpt lat="45.73327" lon="6.7087">
        <ele>2383</ele>
        <time>2021-05-11T11:21:27+02:00</time>
      </trkpt>
      <trkpt lat="45.73295" lon="6.70844">
        <ele>2378</ele>
        <time>2021-05-11T11:21:32+02:00</time>
      </trkpt>
      <trkpt lat="45.73258" lon="6.70839">
        <ele>2383</ele>
        <time>2021-05-11T11:21:37+02:00</time>
      </trkpt>
      <trkpt lat="45.73233" lon="6.70831">
        <ele>2384</ele>
        <time>2021-05-11T11:21:42+02:00</time>
      </trkpt>
      <trkpt lat="45.73209" lon="6.70828">
        <ele>2385</ele>
        <time>2021-05-11T11:21:47+02:00</time>
      </trkpt>
      <trkpt lat="45.73163" lon="6.70839">
        <ele>2394</ele>
        <time>2021-05-11T11:21:52+02:00</time>
      </trkpt>
      <trkpt lat="45.73149" lon="6.70832">
        <ele>2391</ele>
        <time>2021-05-11T11:21:57+02:00</time>
      </trkpt>
      <trkpt lat="45.73125" lon="6.70848">
        <ele>2396</ele>
        <time>2021-05-11T11:22:02+02:00</time>
      </trkpt>
      <trkpt lat="45.73092" lon="6.7085">
        <ele>2396</ele>
        <time>2021-05-11T11:22:07+02:00</time>
      </trkpt>
      <trkpt lat="45.73084" lon="6.70876">
        <ele>2402</ele>
        <time>2021-05-11T11:22:12+02:00</time>
      </trkpt>
      <trkpt lat="45.7306" lon="6.70905">
        <ele>2406</ele>
        <time>2021-05-11T11:22:17+02:00</time>
      </trkpt>
      <trkpt lat="45.73044" lon="6.70899">
        <ele>2403</ele>
        <time>2021-05-11T11:22:22+02:00</time>
      </trkpt>
      <trkpt lat="45.73028" lon="6.70911">
        <ele>2403</ele>
        <time>2021-05-11T11:22:27+02:00</time>
      </trkpt>
      <trkpt lat="45.73008" lon="6.70933">
        <ele>2405</ele>
        <time>2021-05-11T11:22:32+02:00</time>
      </trkpt>
      <trkpt lat="45.72983" lon="6.70944">
        <ele>2405</ele>
        <time>2021-05-11T11:22:37+02:00</time>
      </trkpt>
      <trkpt lat="45.72977" lon="6.7097">
        <ele>2410</ele>
        <time>2021-05-11T11:22:42+02:00</time>
      </trkpt>
      <trkpt lat="45.72953" lon="6.70997">
        <ele>2414</ele>
        <time>2021-05-11T11:22:47+02:00</time>
      </trkpt>
      <trkpt lat="45.72946" lon="6.71023">
        <ele>2421</ele>
        <time>2021-05-11T11:22:52+02:00</time>
      </trkpt>
      <trkpt lat="45.72885" lon="6.71018">
        <ele>2410</ele>
        <time>2021-05-11T11:22:57+02:00</time>
      </trkpt>
      <trkpt lat="45.72824" lon="6.7103">
        <ele>2401</ele>
        <time>2021-05-11T11:23:02+02:00</time>
      </trkpt>
      <trkpt lat="45.72792" lon="6.71081">
        <ele>2412</ele>
        <time>2021-05-11T11:23:07+02:00</time>
      </trkpt>
      <trkpt lat="45.72761" lon="6.71097">
        <ele>2411</ele>
        <time>2021-05-11T11:23:12+02:00</time>
      </trkpt>
      <trkpt lat="45.72722" lon="6.71128">
        <ele>2409</ele>
        <time>2021-05-11T11:23:17+02:00</time>
      </trkpt>
      <trkpt lat="45.72696" lon="6.71138">
        <ele>2404</ele>
        <time>2021-05-11T11:23:22+02:00</time>
      </trkpt>
      <trkpt lat="45.7267" lon="6.71206">
        <ele>2412</ele>
        <time>2021-05-11T11:23:27+02:00</time>
      </trkpt>
      <trkpt lat="45.72643" lon="6.71232">
        <ele>2411</ele>
        <time>2021-05-11T11:23:32+02:00</time>
      </trkpt>
      <trkpt lat="45.726" lon="6.71295">
        <ele>2417</ele>
        <time>2021-05-11T11:23:37+02:00</time>
      </trkpt>
      <trkpt lat="45.72565" lon="6.71373">
        <ele>2426</ele>
        <time>2021-05-11T11:23:42+02:00</time>
      </trkpt>
      <trkpt lat="45.72563" lon="6.71431">
        <ele>2437</ele>
        <time>2021-05-11T11:23:47+02:00</time>
      </trkpt>
      <trkpt lat="45.72532" lon="6.71522">
        <ele>2453</ele>
        <time>2021-05-11T11:23:52+02:00</time>
      </trkpt>
      <trkpt lat="45.72541" lon="6.71573">
        <ele>2464</ele>
        <time>2021-05-11T11:23:57+02:00</time>
      </trkpt>
      <trkpt lat="45.72555" lon="6.71596">
        <ele>2468</ele>
        <time>2021-05-11T11:24:02+02:00</time>
      </trkpt>
      <trkpt lat="45.7255" lon="6.71618">
        <ele>2472</ele>
        <time>2021-05-11T11:24:07+02:00</time>
      </trkpt>
      <trkpt lat="45.72538" lon="6.71618">
        <ele>2472</ele>
        <time>2021-05-11T11:24:12+02:00</time>
      </trkpt>
      <trkpt lat="45.72528" lon="6.71611">
        <ele>2472</ele>
        <time>2021-05-11T11:24:17+02:00</time>
      </trkpt>
      <trkpt lat="45.72516" lon="6.71628">
        <ele>2476</ele>
        <time>2021-05-11T11:24:22+02:00</time>
      </trkpt>
      <trkpt lat="45.72499" lon="6.71664">
        <ele>2483</ele>
        <time>2021-05-11T11:24:27+02:00</time>
      </trkpt>
      <trkpt lat="45.72489" lon="6.71665">
        <ele>2482</ele>
        <time>2021-05-11T11:24:32+02:00</time>
      </trkpt>
      <trkpt lat="45.72479" lon="6.71667">
        <ele>2481</ele>
        <time>2021-05-11T11:24:37+02:00</time>
      </trkpt>
      <trkpt lat="45.72467" lon="6.71672">
        <ele>2481</ele>
        <time>2021-05-11T11:24:42+02:00</time>
      </trkpt>
      <trkpt lat="45.72446" lon="6.71685">
        <ele>2480</ele>
        <time>2021-05-11T11:24:47+02:00</time>
      </trkpt>
      <trkpt lat="45.72426" lon="6.71702">
        <ele>2479</ele>
        <time>2021-05-11T11:24:52+02:00</time>
      </trkpt>
      <trkpt lat="45.72406" lon="6.71718">
        <ele>2477</ele>
        <time>2021-05-11T11:24:57+02:00</time>
      </trkpt>
      <trkpt lat="45.7238" lon="6.7172">
        <ele>2472</ele>
        <time>2021-05-11T11:25:02+02:00</time>
      </trkpt>
      <trkpt lat="45.72358" lon="6.71708">
        <ele>2465</ele>
        <time>2021-05-11T11:25:07+02:00</time>
      </trkpt>
      <trkpt lat="45.72306" lon="6.71718">
        <ele>2455</ele>
        <time>2021-05-11T11:25:12+02:00</time>
      </trkpt>
      <trkpt lat="45.72259" lon="6.71724">
        <ele>2444</ele>
        <time>2021-05-11T11:25:17+02:00</time>
      </trkpt>
      <trkpt lat="45.72228" lon="6.71745">
        <ele>2447</ele>
        <time>2021-05-11T11:25:22+02:00</time>
      </trkpt>
      <trkpt lat="45.72205" lon="6.71733">
        <ele>2440</ele>
        <time>2021-05-11T11:25:27+02:00</time>
      </trkpt>
    </trkseg>
  </trk>
</gpx>